Date,TemperatureHighF,TemperatureAvgF,TemperatureLowF,DewpointHighF,DewpointAvgF,DewpointLowF,HumidityHigh,HumidityAvg,HumidityLow,PressureMaxIn,PressureMinIn,WindSpeedMaxMPH,WindSpeedAvgMPH,GustSpeedMaxMPH,PrecipitationSumIn
2013-2-6,56.8,47.8,40.6,46.0,38.8,-99.9,93,77,63,30.15,30.11,9,-22,14,0.00
2013-2-7,54.5,46.1,36.8,46.0,40.1,33.0,96,81,45,30.15,29.98,11,2,15,0.08
2013-2-8,55.3,44.5,35.5,42.0,37.8,34.0,96,79,51,30.02,29.93,11,2,15,0.01
2013-2-9,59.4,45.0,34.3,37.0,32.9,30.0,84,65,35,30.09,29.99,7,1,10,0.00
2013-2-10,60.9,42.6,28.4,46.0,34.7,26.0,92,76,43,30.12,30.01,7,1,11,0.00
2013-2-11,66.2,47.5,32.3,44.0,36.3,30.0,95,71,27,30.22,30.07,9,2,12,0.00
2013-2-12,62.7,45.9,37.0,48.0,42.1,36.0,98,87,47,30.36,30.23,7,1,9,0.01
2013-2-13,63.2,46.6,34.2,48.0,41.8,33.0,98,85,53,30.34,30.20,7,1,11,0.01
2013-2-14,69.4,48.8,34.6,51.0,41.4,34.0,97,79,44,30.25,30.15,5,1,8,0.00
2013-2-15,72.1,51.5,35.2,47.0,41.0,33.0,95,72,37,30.26,30.20,7,1,12,0.01
2013-2-16,71.1,50.2,36.4,52.0,42.8,35.0,95,79,39,30.24,30.04,5,1,11,0.00
2013-2-17,61.4,46.2,34.3,46.0,40.0,33.0,97,81,54,30.05,29.97,7,1,10,0.01
2013-2-18,53.0,42.9,32.3,44.0,38.3,31.0,97,84,67,30.02,29.92,14,3,17,0.01
2013-2-19,50.0,43.5,34.8,44.0,37.2,31.0,95,79,56,29.95,29.73,12,3,26,0.35
2013-2-20,59.1,43.8,30.7,43.0,35.4,28.0,91,74,48,30.05,29.85,10,2,15,0.00
2013-2-21,58.7,46.7,35.5,42.0,37.1,32.0,87,71,43,30.16,30.05,13,3,16,0.00
2013-2-22,61.9,46.9,33.5,45.0,39.6,32.0,93,77,44,30.24,30.16,7,2,13,0.00
2013-2-23,58.4,49.4,40.9,46.0,37.9,29.0,93,67,33,30.26,30.16,12,3,16,0.00
2013-2-24,64.4,48.9,37.8,38.0,34.2,27.0,89,60,24,30.25,30.15,13,2,15,0.00
2013-2-25,63.6,45.9,33.2,48.0,38.6,31.0,94,78,49,30.26,30.16,11,2,14,0.00
2013-2-26,65.3,46.9,31.2,41.0,35.9,29.0,91,69,33,30.22,30.13,7,2,14,0.00
2013-2-27,66.8,48.9,33.0,46.0,39.2,31.0,94,73,28,30.35,30.20,7,1,11,0.00
2013-2-28,62.7,52.8,43.9,54.0,47.9,42.0,94,84,70,30.43,30.35,9,2,15,0.00